sensor_id;sensor_type;location;lat;lon;timestamp;P1;durP1;ratioP1;P2;durP2;ratioP2
56122;SDS011;42426;46.104;19.656;2023-05-20T00:01:22;20.13;;;14.65;;
56122;SDS011;42426;46.104;19.656;2023-05-20T00:03:48;24.95;;;15.57;;
56122;SDS011;42426;46.104;19.656;2023-05-20T00:06:14;21.77;;;15.38;;
56122;SDS011;42426;46.104;19.656;2023-05-20T00:08:40;18.88;;;13.95;;
56122;SDS011;42426;46.104;19.656;2023-05-20T00:11:06;17.55;;;12.73;;
56122;SDS011;42426;46.104;19.656;2023-05-20T00:13:33;19.25;;;14.20;;
56122;SDS011;42426;46.104;19.656;2023-05-20T00:16:00;19.05;;;13.90;;
56122;SDS011;42426;46.104;19.656;2023-05-20T00:18:26;20.15;;;14.45;;
56122;SDS011;42426;46.104;19.656;2023-05-20T00:20:52;20.58;;;13.50;;
56122;SDS011;42426;46.104;19.656;2023-05-20T00:23:19;22.13;;;15.05;;
56122;SDS011;42426;46.104;19.656;2023-05-20T00:25:45;19.33;;;13.10;;
56122;SDS011;42426;46.104;19.656;2023-05-20T00:28:11;23.33;;;13.77;;
56122;SDS011;42426;46.104;19.656;2023-05-20T00:30:40;18.73;;;14.18;;
56122;SDS011;42426;46.104;19.656;2023-05-20T00:33:08;17.38;;;13.65;;
56122;SDS011;42426;46.104;19.656;2023-05-20T00:35:37;18.95;;;14.27;;
56122;SDS011;42426;46.104;19.656;2023-05-20T00:38:05;21.02;;;14.38;;
56122;SDS011;42426;46.104;19.656;2023-05-20T00:40:31;20.20;;;14.95;;
56122;SDS011;42426;46.104;19.656;2023-05-20T00:42:57;18.67;;;14.55;;
56122;SDS011;42426;46.104;19.656;2023-05-20T00:45:23;23.10;;;15.07;;
56122;SDS011;42426;46.104;19.656;2023-05-20T00:47:50;20.25;;;14.07;;
56122;SDS011;42426;46.104;19.656;2023-05-20T00:50:21;17.63;;;13.43;;
56122;SDS011;42426;46.104;19.656;2023-05-20T00:52:47;20.98;;;14.10;;
56122;SDS011;42426;46.104;19.656;2023-05-20T00:55:15;18.55;;;14.60;;
56122;SDS011;42426;46.104;19.656;2023-05-20T00:57:41;23.10;;;14.80;;
56122;SDS011;42426;46.104;19.656;2023-05-20T01:00:08;26.27;;;14.13;;
56122;SDS011;42426;46.104;19.656;2023-05-20T01:02:34;16.63;;;12.77;;
56122;SDS011;42426;46.104;19.656;2023-05-20T01:05:00;19.08;;;13.93;;
56122;SDS011;42426;46.104;19.656;2023-05-20T01:07:29;20.48;;;14.18;;
56122;SDS011;42426;46.104;19.656;2023-05-20T01:09:55;22.70;;;15.65;;
56122;SDS011;42426;46.104;19.656;2023-05-20T01:12:29;19.58;;;15.57;;
56122;SDS011;42426;46.104;19.656;2023-05-20T01:15:17;21.48;;;14.65;;
56122;SDS011;42426;46.104;19.656;2023-05-20T01:17:43;21.10;;;14.23;;
56122;SDS011;42426;46.104;19.656;2023-05-20T01:20:11;19.73;;;14.50;;
56122;SDS011;42426;46.104;19.656;2023-05-20T01:22:46;21.00;;;14.77;;
56122;SDS011;42426;46.104;19.656;2023-05-20T01:25:12;20.80;;;14.55;;
56122;SDS011;42426;46.104;19.656;2023-05-20T01:27:39;21.10;;;13.93;;
56122;SDS011;42426;46.104;19.656;2023-05-20T01:30:05;20.02;;;15.00;;
56122;SDS011;42426;46.104;19.656;2023-05-20T01:32:31;16.98;;;13.93;;
56122;SDS011;42426;46.104;19.656;2023-05-20T01:34:59;22.13;;;15.05;;
56122;SDS011;42426;46.104;19.656;2023-05-20T01:37:25;24.20;;;15.75;;
56122;SDS011;42426;46.104;19.656;2023-05-20T01:39:52;22.90;;;15.27;;
56122;SDS011;42426;46.104;19.656;2023-05-20T01:42:19;17.27;;;13.35;;
56122;SDS011;42426;46.104;19.656;2023-05-20T01:44:46;21.40;;;15.45;;
56122;SDS011;42426;46.104;19.656;2023-05-20T01:47:12;23.17;;;15.70;;
56122;SDS011;42426;46.104;19.656;2023-05-20T01:49:38;18.98;;;14.57;;
56122;SDS011;42426;46.104;19.656;2023-05-20T01:52:04;22.92;;;14.90;;
56122;SDS011;42426;46.104;19.656;2023-05-20T01:54:30;21.08;;;14.90;;
56122;SDS011;42426;46.104;19.656;2023-05-20T01:56:56;21.83;;;15.50;;
56122;SDS011;42426;46.104;19.656;2023-05-20T01:59:25;25.30;;;16.70;;
56122;SDS011;42426;46.104;19.656;2023-05-20T02:01:51;28.33;;;16.15;;
56122;SDS011;42426;46.104;19.656;2023-05-20T02:04:17;26.30;;;16.98;;
56122;SDS011;42426;46.104;19.656;2023-05-20T02:06:43;23.08;;;15.30;;
56122;SDS011;42426;46.104;19.656;2023-05-20T02:09:12;20.80;;;15.77;;
56122;SDS011;42426;46.104;19.656;2023-05-20T02:11:38;20.15;;;14.52;;
56122;SDS011;42426;46.104;19.656;2023-05-20T02:14:04;20.00;;;14.80;;
56122;SDS011;42426;46.104;19.656;2023-05-20T02:16:30;24.63;;;15.25;;
56122;SDS011;42426;46.104;19.656;2023-05-20T02:18:56;20.38;;;15.40;;
56122;SDS011;42426;46.104;19.656;2023-05-20T02:21:23;21.27;;;15.00;;
56122;SDS011;42426;46.104;19.656;2023-05-20T02:23:50;25.85;;;17.30;;
56122;SDS011;42426;46.104;19.656;2023-05-20T02:26:16;24.92;;;17.40;;
56122;SDS011;42426;46.104;19.656;2023-05-20T02:28:42;20.27;;;14.73;;
56122;SDS011;42426;46.104;19.656;2023-05-20T02:31:11;24.60;;;15.60;;
56122;SDS011;42426;46.104;19.656;2023-05-20T02:33:37;20.02;;;15.15;;
56122;SDS011;42426;46.104;19.656;2023-05-20T02:36:03;22.13;;;15.52;;
56122;SDS011;42426;46.104;19.656;2023-05-20T02:38:29;22.90;;;15.73;;
56122;SDS011;42426;46.104;19.656;2023-05-20T02:40:56;21.90;;;15.98;;
56122;SDS011;42426;46.104;19.656;2023-05-20T02:43:23;24.48;;;16.25;;
56122;SDS011;42426;46.104;19.656;2023-05-20T02:45:49;23.63;;;16.00;;
56122;SDS011;42426;46.104;19.656;2023-05-20T02:48:15;22.55;;;14.88;;
56122;SDS011;42426;46.104;19.656;2023-05-20T02:50:41;23.15;;;17.02;;
56122;SDS011;42426;46.104;19.656;2023-05-20T02:53:06;24.08;;;17.08;;
56122;SDS011;42426;46.104;19.656;2023-05-20T02:55:33;23.38;;;15.95;;
56122;SDS011;42426;46.104;19.656;2023-05-20T02:57:59;22.52;;;16.48;;
56122;SDS011;42426;46.104;19.656;2023-05-20T03:00:25;21.83;;;15.15;;
56122;SDS011;42426;46.104;19.656;2023-05-20T03:02:54;21.48;;;16.48;;
56122;SDS011;42426;46.104;19.656;2023-05-20T03:05:20;21.92;;;16.40;;
56122;SDS011;42426;46.104;19.656;2023-05-20T03:07:46;25.27;;;16.42;;
56122;SDS011;42426;46.104;19.656;2023-05-20T03:10:12;23.98;;;16.27;;
56122;SDS011;42426;46.104;19.656;2023-05-20T03:12:39;25.63;;;18.02;;
56122;SDS011;42426;46.104;19.656;2023-05-20T03:15:05;27.48;;;17.67;;
56122;SDS011;42426;46.104;19.656;2023-05-20T03:17:31;25.70;;;17.60;;
56122;SDS011;42426;46.104;19.656;2023-05-20T03:19:58;25.80;;;17.25;;
56122;SDS011;42426;46.104;19.656;2023-05-20T03:22:25;20.45;;;15.75;;
56122;SDS011;42426;46.104;19.656;2023-05-20T03:24:51;23.83;;;17.42;;
56122;SDS011;42426;46.104;19.656;2023-05-20T03:27:17;23.20;;;16.83;;
56122;SDS011;42426;46.104;19.656;2023-05-20T03:29:43;28.85;;;17.88;;
56122;SDS011;42426;46.104;19.656;2023-05-20T03:32:09;27.33;;;17.75;;
56122;SDS011;42426;46.104;19.656;2023-05-20T03:34:35;22.42;;;16.63;;
56122;SDS011;42426;46.104;19.656;2023-05-20T03:37:02;23.60;;;17.17;;
56122;SDS011;42426;46.104;19.656;2023-05-20T03:39:28;23.35;;;17.13;;
56122;SDS011;42426;46.104;19.656;2023-05-20T03:41:54;24.08;;;16.20;;
56122;SDS011;42426;46.104;19.656;2023-05-20T03:44:20;25.92;;;17.77;;
56122;SDS011;42426;46.104;19.656;2023-05-20T03:46:46;28.20;;;18.15;;
56122;SDS011;42426;46.104;19.656;2023-05-20T03:49:12;23.95;;;17.73;;
56122;SDS011;42426;46.104;19.656;2023-05-20T03:51:38;27.70;;;17.95;;
56122;SDS011;42426;46.104;19.656;2023-05-20T03:54:04;29.20;;;18.50;;
56122;SDS011;42426;46.104;19.656;2023-05-20T03:56:31;28.73;;;18.30;;
56122;SDS011;42426;46.104;19.656;2023-05-20T03:58:57;27.02;;;19.65;;
56122;SDS011;42426;46.104;19.656;2023-05-20T04:01:23;27.67;;;19.48;;
56122;SDS011;42426;46.104;19.656;2023-05-20T04:03:49;29.70;;;18.52;;
56122;SDS011;42426;46.104;19.656;2023-05-20T04:06:15;30.30;;;19.65;;
56122;SDS011;42426;46.104;19.656;2023-05-20T04:08:42;27.38;;;20.30;;
56122;SDS011;42426;46.104;19.656;2023-05-20T04:11:08;29.38;;;19.73;;
56122;SDS011;42426;46.104;19.656;2023-05-20T04:13:34;26.58;;;20.40;;
56122;SDS011;42426;46.104;19.656;2023-05-20T04:16:00;30.17;;;18.85;;
56122;SDS011;42426;46.104;19.656;2023-05-20T04:18:26;27.88;;;20.13;;
56122;SDS011;42426;46.104;19.656;2023-05-20T04:20:56;33.05;;;20.38;;
56122;SDS011;42426;46.104;19.656;2023-05-20T04:23:23;31.00;;;21.38;;
56122;SDS011;42426;46.104;19.656;2023-05-20T04:25:49;31.10;;;20.42;;
56122;SDS011;42426;46.104;19.656;2023-05-20T04:28:15;30.13;;;20.67;;
56122;SDS011;42426;46.104;19.656;2023-05-20T04:30:41;30.52;;;21.70;;
56122;SDS011;42426;46.104;19.656;2023-05-20T04:33:09;31.40;;;20.88;;
56122;SDS011;42426;46.104;19.656;2023-05-20T04:35:35;30.40;;;21.65;;
56122;SDS011;42426;46.104;19.656;2023-05-20T04:38:02;31.02;;;19.98;;
56122;SDS011;42426;46.104;19.656;2023-05-20T04:40:28;30.42;;;19.95;;
56122;SDS011;42426;46.104;19.656;2023-05-20T04:42:54;31.58;;;22.02;;
56122;SDS011;42426;46.104;19.656;2023-05-20T04:45:22;36.35;;;22.42;;
56122;SDS011;42426;46.104;19.656;2023-05-20T04:47:49;27.30;;;19.48;;
56122;SDS011;42426;46.104;19.656;2023-05-20T04:50:17;30.63;;;22.02;;
56122;SDS011;42426;46.104;19.656;2023-05-20T04:52:43;29.90;;;20.70;;
56122;SDS011;42426;46.104;19.656;2023-05-20T04:55:10;29.52;;;20.13;;
56122;SDS011;42426;46.104;19.656;2023-05-20T04:57:36;30.50;;;20.90;;
56122;SDS011;42426;46.104;19.656;2023-05-20T05:00:05;27.02;;;19.02;;
56122;SDS011;42426;46.104;19.656;2023-05-20T05:02:32;31.15;;;21.70;;
56122;SDS011;42426;46.104;19.656;2023-05-20T05:04:58;35.17;;;21.27;;
56122;SDS011;42426;46.104;19.656;2023-05-20T05:07:24;28.77;;;17.95;;
56122;SDS011;42426;46.104;19.656;2023-05-20T05:09:50;34.67;;;21.17;;
56122;SDS011;42426;46.104;19.656;2023-05-20T05:12:16;30.92;;;19.77;;
56122;SDS011;42426;46.104;19.656;2023-05-20T05:14:43;29.75;;;19.05;;
56122;SDS011;42426;46.104;19.656;2023-05-20T05:17:09;26.67;;;18.27;;
56122;SDS011;42426;46.104;19.656;2023-05-20T05:19:35;32.08;;;18.15;;
56122;SDS011;42426;46.104;19.656;2023-05-20T05:22:01;26.30;;;17.73;;
56122;SDS011;42426;46.104;19.656;2023-05-20T05:24:27;29.48;;;19.48;;
56122;SDS011;42426;46.104;19.656;2023-05-20T05:26:54;31.73;;;20.17;;
56122;SDS011;42426;46.104;19.656;2023-05-20T05:29:20;24.63;;;16.75;;
56122;SDS011;42426;46.104;19.656;2023-05-20T05:31:46;25.88;;;17.42;;
56122;SDS011;42426;46.104;19.656;2023-05-20T05:34:12;24.73;;;17.55;;
56122;SDS011;42426;46.104;19.656;2023-05-20T05:36:38;25.02;;;16.83;;
56122;SDS011;42426;46.104;19.656;2023-05-20T05:39:05;23.63;;;16.30;;
56122;SDS011;42426;46.104;19.656;2023-05-20T05:41:31;25.92;;;17.25;;
56122;SDS011;42426;46.104;19.656;2023-05-20T05:43:57;21.60;;;15.70;;
56122;SDS011;42426;46.104;19.656;2023-05-20T05:46:24;24.65;;;14.55;;
56122;SDS011;42426;46.104;19.656;2023-05-20T05:48:50;21.65;;;14.40;;
56122;SDS011;42426;46.104;19.656;2023-05-20T05:51:16;25.05;;;17.23;;
56122;SDS011;42426;46.104;19.656;2023-05-20T05:53:42;21.45;;;15.65;;
56122;SDS011;42426;46.104;19.656;2023-05-20T05:56:09;23.02;;;15.13;;
56122;SDS011;42426;46.104;19.656;2023-05-20T05:58:35;25.20;;;16.67;;
56122;SDS011;42426;46.104;19.656;2023-05-20T06:01:01;25.58;;;14.55;;
56122;SDS011;42426;46.104;19.656;2023-05-20T06:03:27;23.00;;;16.30;;
56122;SDS011;42426;46.104;19.656;2023-05-20T06:05:54;21.20;;;15.07;;
56122;SDS011;42426;46.104;19.656;2023-05-20T06:08:21;22.02;;;15.23;;
56122;SDS011;42426;46.104;19.656;2023-05-20T06:10:49;22.23;;;14.48;;
56122;SDS011;42426;46.104;19.656;2023-05-20T06:13:15;24.52;;;13.82;;
56122;SDS011;42426;46.104;19.656;2023-05-20T06:15:42;25.38;;;15.15;;
56122;SDS011;42426;46.104;19.656;2023-05-20T06:18:10;25.02;;;15.95;;
56122;SDS011;42426;46.104;19.656;2023-05-20T06:20:36;26.77;;;16.27;;
56122;SDS011;42426;46.104;19.656;2023-05-20T06:23:02;24.23;;;15.57;;
56122;SDS011;42426;46.104;19.656;2023-05-20T06:25:28;18.77;;;15.15;;
56122;SDS011;42426;46.104;19.656;2023-05-20T06:27:54;19.42;;;13.23;;
56122;SDS011;42426;46.104;19.656;2023-05-20T06:30:20;20.33;;;13.35;;
56122;SDS011;42426;46.104;19.656;2023-05-20T06:32:46;24.17;;;15.50;;
56122;SDS011;42426;46.104;19.656;2023-05-20T06:35:12;24.23;;;14.75;;
56122;SDS011;42426;46.104;19.656;2023-05-20T06:37:39;21.42;;;13.73;;
56122;SDS011;42426;46.104;19.656;2023-05-20T06:40:05;19.10;;;13.35;;
56122;SDS011;42426;46.104;19.656;2023-05-20T06:42:31;24.30;;;14.50;;
56122;SDS011;42426;46.104;19.656;2023-05-20T06:44:57;26.27;;;15.52;;
56122;SDS011;42426;46.104;19.656;2023-05-20T06:47:23;31.83;;;17.05;;
56122;SDS011;42426;46.104;19.656;2023-05-20T06:49:49;21.08;;;13.90;;
56122;SDS011;42426;46.104;19.656;2023-05-20T06:52:16;18.75;;;14.27;;
56122;SDS011;42426;46.104;19.656;2023-05-20T06:54:42;22.58;;;14.40;;
56122;SDS011;42426;46.104;19.656;2023-05-20T06:57:08;22.75;;;14.75;;
56122;SDS011;42426;46.104;19.656;2023-05-20T06:59:34;28.00;;;14.05;;
56122;SDS011;42426;46.104;19.656;2023-05-20T07:02:01;30.02;;;15.20;;
56122;SDS011;42426;46.104;19.656;2023-05-20T07:04:27;27.83;;;14.00;;
56122;SDS011;42426;46.104;19.656;2023-05-20T07:06:53;21.90;;;14.73;;
56122;SDS011;42426;46.104;19.656;2023-05-20T07:09:19;21.90;;;12.93;;
56122;SDS011;42426;46.104;19.656;2023-05-20T07:11:45;21.02;;;13.95;;
56122;SDS011;42426;46.104;19.656;2023-05-20T07:14:11;20.08;;;13.55;;
56122;SDS011;42426;46.104;19.656;2023-05-20T07:16:38;18.75;;;14.32;;
56122;SDS011;42426;46.104;19.656;2023-05-20T07:19:04;17.95;;;14.00;;
56122;SDS011;42426;46.104;19.656;2023-05-20T07:21:30;16.55;;;12.82;;
56122;SDS011;42426;46.104;19.656;2023-05-20T07:23:55;17.20;;;12.18;;
56122;SDS011;42426;46.104;19.656;2023-05-20T07:26:21;19.60;;;12.85;;
56122;SDS011;42426;46.104;19.656;2023-05-20T07:28:47;15.52;;;12.38;;
56122;SDS011;42426;46.104;19.656;2023-05-20T07:31:12;16.20;;;12.85;;
56122;SDS011;42426;46.104;19.656;2023-05-20T07:33:38;15.13;;;12.40;;
56122;SDS011;42426;46.104;19.656;2023-05-20T07:36:04;16.15;;;11.02;;
56122;SDS011;42426;46.104;19.656;2023-05-20T07:38:30;15.00;;;11.85;;
56122;SDS011;42426;46.104;19.656;2023-05-20T07:40:56;13.85;;;10.40;;
56122;SDS011;42426;46.104;19.656;2023-05-20T07:43:22;13.52;;;11.05;;
56122;SDS011;42426;46.104;19.656;2023-05-20T07:45:48;17.92;;;11.43;;
56122;SDS011;42426;46.104;19.656;2023-05-20T07:48:14;20.05;;;12.80;;
56122;SDS011;42426;46.104;19.656;2023-05-20T07:50:40;24.02;;;14.32;;
56122;SDS011;42426;46.104;19.656;2023-05-20T07:53:06;27.40;;;12.43;;
56122;SDS011;42426;46.104;19.656;2023-05-20T07:55:35;19.30;;;11.98;;
56122;SDS011;42426;46.104;19.656;2023-05-20T07:58:01;21.98;;;13.02;;
56122;SDS011;42426;46.104;19.656;2023-05-20T08:00:27;17.65;;;10.70;;
56122;SDS011;42426;46.104;19.656;2023-05-20T08:02:53;16.92;;;11.38;;
56122;SDS011;42426;46.104;19.656;2023-05-20T08:05:18;16.85;;;10.65;;
56122;SDS011;42426;46.104;19.656;2023-05-20T08:07:46;15.98;;;11.73;;
56122;SDS011;42426;46.104;19.656;2023-05-20T08:10:12;18.02;;;11.60;;
56122;SDS011;42426;46.104;19.656;2023-05-20T08:12:38;14.00;;;11.13;;
56122;SDS011;42426;46.104;19.656;2023-05-20T08:15:04;15.43;;;12.05;;
56122;SDS011;42426;46.104;19.656;2023-05-20T08:17:31;14.82;;;10.65;;
56122;SDS011;42426;46.104;19.656;2023-05-20T08:19:58;16.58;;;10.55;;
56122;SDS011;42426;46.104;19.656;2023-05-20T08:22:23;15.85;;;11.15;;
56122;SDS011;42426;46.104;19.656;2023-05-20T08:24:49;19.40;;;11.63;;
56122;SDS011;42426;46.104;19.656;2023-05-20T08:27:15;13.18;;;10.80;;
56122;SDS011;42426;46.104;19.656;2023-05-20T08:29:40;19.75;;;10.82;;
56122;SDS011;42426;46.104;19.656;2023-05-20T08:32:08;13.27;;;10.68;;
56122;SDS011;42426;46.104;19.656;2023-05-20T08:34:34;19.75;;;11.52;;
56122;SDS011;42426;46.104;19.656;2023-05-20T08:37:00;18.10;;;11.40;;
56122;SDS011;42426;46.104;19.656;2023-05-20T08:39:27;15.68;;;11.40;;
56122;SDS011;42426;46.104;19.656;2023-05-20T08:41:52;14.82;;;11.05;;
56122;SDS011;42426;46.104;19.656;2023-05-20T08:44:18;15.52;;;10.90;;
56122;SDS011;42426;46.104;19.656;2023-05-20T08:46:46;19.05;;;12.75;;
56122;SDS011;42426;46.104;19.656;2023-05-20T08:49:12;19.42;;;10.63;;
56122;SDS011;42426;46.104;19.656;2023-05-20T08:51:38;12.00;;;9.65;;
56122;SDS011;42426;46.104;19.656;2023-05-20T08:54:04;16.92;;;11.35;;
56122;SDS011;42426;46.104;19.656;2023-05-20T08:56:32;15.43;;;10.70;;
56122;SDS011;42426;46.104;19.656;2023-05-20T08:58:58;15.40;;;11.00;;
56122;SDS011;42426;46.104;19.656;2023-05-20T09:01:24;15.75;;;10.20;;
56122;SDS011;42426;46.104;19.656;2023-05-20T09:03:50;18.17;;;11.02;;
56122;SDS011;42426;46.104;19.656;2023-05-20T09:06:16;17.55;;;10.38;;
56122;SDS011;42426;46.104;19.656;2023-05-20T09:08:47;11.73;;;9.38;;
56122;SDS011;42426;46.104;19.656;2023-05-20T09:11:14;16.92;;;11.18;;
56122;SDS011;42426;46.104;19.656;2023-05-20T09:13:39;14.23;;;11.45;;
56122;SDS011;42426;46.104;19.656;2023-05-20T09:16:05;15.32;;;10.65;;
56122;SDS011;42426;46.104;19.656;2023-05-20T09:18:31;13.18;;;10.27;;
56122;SDS011;42426;46.104;19.656;2023-05-20T09:20:57;16.23;;;10.00;;
56122;SDS011;42426;46.104;19.656;2023-05-20T09:23:28;15.02;;;9.63;;
56122;SDS011;42426;46.104;19.656;2023-05-20T09:25:54;11.52;;;10.32;;
56122;SDS011;42426;46.104;19.656;2023-05-20T09:28:21;24.65;;;10.93;;
56122;SDS011;42426;46.104;19.656;2023-05-20T09:30:56;13.63;;;10.20;;
56122;SDS011;42426;46.104;19.656;2023-05-20T09:33:25;13.65;;;11.10;;
56122;SDS011;42426;46.104;19.656;2023-05-20T09:36:02;10.80;;;9.67;;
56122;SDS011;42426;46.104;19.656;2023-05-20T09:38:29;14.18;;;8.75;;
56122;SDS011;42426;46.104;19.656;2023-05-20T09:41:11;13.15;;;9.32;;
56122;SDS011;42426;46.104;19.656;2023-05-20T09:43:40;29.85;;;9.80;;
56122;SDS011;42426;46.104;19.656;2023-05-20T09:46:07;15.05;;;10.07;;
56122;SDS011;42426;46.104;19.656;2023-05-20T09:48:36;13.77;;;9.75;;
56122;SDS011;42426;46.104;19.656;2023-05-20T09:51:03;14.52;;;10.15;;
56122;SDS011;42426;46.104;19.656;2023-05-20T09:53:29;12.15;;;10.13;;
56122;SDS011;42426;46.104;19.656;2023-05-20T09:55:55;13.68;;;10.38;;
56122;SDS011;42426;46.104;19.656;2023-05-20T09:58:22;11.20;;;10.02;;
56122;SDS011;42426;46.104;19.656;2023-05-20T10:00:49;12.80;;;10.25;;
56122;SDS011;42426;46.104;19.656;2023-05-20T10:03:16;11.85;;;9.60;;
56122;SDS011;42426;46.104;19.656;2023-05-20T10:05:45;11.75;;;9.25;;
56122;SDS011;42426;46.104;19.656;2023-05-20T10:11:04;11.85;;;10.20;;
56122;SDS011;42426;46.104;19.656;2023-05-20T10:21:29;14.07;;;10.60;;
56122;SDS011;42426;46.104;19.656;2023-05-20T10:24:06;15.48;;;11.32;;
56122;SDS011;42426;46.104;19.656;2023-05-20T10:26:39;14.07;;;10.65;;
56122;SDS011;42426;46.104;19.656;2023-05-20T10:31:48;14.93;;;9.60;;
56122;SDS011;42426;46.104;19.656;2023-05-20T10:34:16;11.55;;;9.82;;
56122;SDS011;42426;46.104;19.656;2023-05-20T10:39:18;12.40;;;10.05;;
56122;SDS011;42426;46.104;19.656;2023-05-20T10:41:49;14.07;;;10.10;;
56122;SDS011;42426;46.104;19.656;2023-05-20T10:44:15;16.38;;;9.95;;
56122;SDS011;42426;46.104;19.656;2023-05-20T10:46:40;17.13;;;10.20;;
56122;SDS011;42426;46.104;19.656;2023-05-20T10:49:16;14.85;;;10.40;;
56122;SDS011;42426;46.104;19.656;2023-05-20T10:51:43;11.60;;;9.52;;
56122;SDS011;42426;46.104;19.656;2023-05-20T10:54:10;17.27;;;10.02;;
56122;SDS011;42426;46.104;19.656;2023-05-20T10:56:38;16.30;;;10.55;;
56122;SDS011;42426;46.104;19.656;2023-05-20T10:59:05;17.10;;;11.35;;
56122;SDS011;42426;46.104;19.656;2023-05-20T11:01:32;13.70;;;10.98;;
56122;SDS011;42426;46.104;19.656;2023-05-20T11:03:58;11.55;;;10.35;;
56122;SDS011;42426;46.104;19.656;2023-05-20T11:06:28;12.88;;;9.85;;
56122;SDS011;42426;46.104;19.656;2023-05-20T11:08:53;14.40;;;10.40;;
56122;SDS011;42426;46.104;19.656;2023-05-20T11:11:20;16.38;;;10.75;;
56122;SDS011;42426;46.104;19.656;2023-05-20T11:13:49;11.57;;;9.15;;
56122;SDS011;42426;46.104;19.656;2023-05-20T11:16:16;12.23;;;9.38;;
56122;SDS011;42426;46.104;19.656;2023-05-20T11:18:42;14.30;;;10.57;;
56122;SDS011;42426;46.104;19.656;2023-05-20T11:21:07;11.07;;;9.30;;
56122;SDS011;42426;46.104;19.656;2023-05-20T11:23:33;14.23;;;10.50;;
56122;SDS011;42426;46.104;19.656;2023-05-20T11:25:59;14.07;;;9.40;;
56122;SDS011;42426;46.104;19.656;2023-05-20T11:28:25;10.82;;;9.68;;
56122;SDS011;42426;46.104;19.656;2023-05-20T11:30:51;17.45;;;9.38;;
56122;SDS011;42426;46.104;19.656;2023-05-20T11:33:17;11.25;;;10.02;;
56122;SDS011;42426;46.104;19.656;2023-05-20T11:35:47;12.23;;;9.10;;
56122;SDS011;42426;46.104;19.656;2023-05-20T11:38:15;16.58;;;10.25;;
56122;SDS011;42426;46.104;19.656;2023-05-20T11:40:42;11.13;;;10.00;;
56122;SDS011;42426;46.104;19.656;2023-05-20T11:43:10;12.23;;;10.07;;
56122;SDS011;42426;46.104;19.656;2023-05-20T11:45:47;16.70;;;10.85;;
56122;SDS011;42426;46.104;19.656;2023-05-20T11:48:18;12.38;;;9.80;;
56122;SDS011;42426;46.104;19.656;2023-05-20T11:50:44;11.18;;;9.77;;
56122;SDS011;42426;46.104;19.656;2023-05-20T11:53:18;13.45;;;9.82;;
56122;SDS011;42426;46.104;19.656;2023-05-20T11:55:48;14.05;;;9.77;;
56122;SDS011;42426;46.104;19.656;2023-05-20T11:58:19;12.75;;;10.05;;
56122;SDS011;42426;46.104;19.656;2023-05-20T12:00:54;15.82;;;10.70;;
56122;SDS011;42426;46.104;19.656;2023-05-20T12:03:21;15.50;;;11.15;;
56122;SDS011;42426;46.104;19.656;2023-05-20T12:05:46;20.15;;;10.65;;
56122;SDS011;42426;46.104;19.656;2023-05-20T12:08:14;16.67;;;10.20;;
56122;SDS011;42426;46.104;19.656;2023-05-20T12:10:41;11.38;;;9.35;;
56122;SDS011;42426;46.104;19.656;2023-05-20T12:13:06;16.75;;;11.05;;
56122;SDS011;42426;46.104;19.656;2023-05-20T12:15:39;14.85;;;11.10;;
56122;SDS011;42426;46.104;19.656;2023-05-20T12:18:05;11.45;;;10.25;;
56122;SDS011;42426;46.104;19.656;2023-05-20T12:20:30;11.93;;;10.15;;
56122;SDS011;42426;46.104;19.656;2023-05-20T12:22:58;14.20;;;10.07;;
56122;SDS011;42426;46.104;19.656;2023-05-20T12:25:24;12.05;;;9.75;;
56122;SDS011;42426;46.104;19.656;2023-05-20T12:27:50;19.48;;;11.05;;
56122;SDS011;42426;46.104;19.656;2023-05-20T12:30:19;15.05;;;10.73;;
56122;SDS011;42426;46.104;19.656;2023-05-20T12:32:46;14.13;;;10.82;;
56122;SDS011;42426;46.104;19.656;2023-05-20T12:35:13;11.70;;;9.43;;
56122;SDS011;42426;46.104;19.656;2023-05-20T12:37:40;12.85;;;10.50;;
56122;SDS011;42426;46.104;19.656;2023-05-20T12:40:07;16.13;;;11.63;;
56122;SDS011;42426;46.104;19.656;2023-05-20T12:42:37;15.52;;;10.57;;
56122;SDS011;42426;46.104;19.656;2023-05-20T12:45:03;16.05;;;11.02;;
56122;SDS011;42426;46.104;19.656;2023-05-20T12:47:30;12.73;;;10.60;;
56122;SDS011;42426;46.104;19.656;2023-05-20T12:49:56;12.18;;;10.77;;
56122;SDS011;42426;46.104;19.656;2023-05-20T12:52:22;16.60;;;10.88;;
56122;SDS011;42426;46.104;19.656;2023-05-20T12:54:48;18.98;;;10.70;;
56122;SDS011;42426;46.104;19.656;2023-05-20T12:57:14;15.38;;;11.23;;
56122;SDS011;42426;46.104;19.656;2023-05-20T12:59:40;12.63;;;10.52;;
56122;SDS011;42426;46.104;19.656;2023-05-20T13:02:06;13.80;;;10.93;;
56122;SDS011;42426;46.104;19.656;2023-05-20T13:04:31;14.63;;;10.48;;
56122;SDS011;42426;46.104;19.656;2023-05-20T13:06:57;14.25;;;11.30;;
56122;SDS011;42426;46.104;19.656;2023-05-20T13:09:23;15.27;;;11.18;;
56122;SDS011;42426;46.104;19.656;2023-05-20T13:11:49;15.25;;;11.52;;
56122;SDS011;42426;46.104;19.656;2023-05-20T13:14:15;15.27;;;11.57;;
56122;SDS011;42426;46.104;19.656;2023-05-20T13:16:40;20.00;;;11.90;;
56122;SDS011;42426;46.104;19.656;2023-05-20T13:19:06;15.23;;;11.98;;
56122;SDS011;42426;46.104;19.656;2023-05-20T13:21:32;15.70;;;10.75;;
56122;SDS011;42426;46.104;19.656;2023-05-20T13:23:58;14.82;;;10.88;;
56122;SDS011;42426;46.104;19.656;2023-05-20T13:26:25;16.15;;;11.20;;
56122;SDS011;42426;46.104;19.656;2023-05-20T13:28:51;18.48;;;11.05;;
56122;SDS011;42426;46.104;19.656;2023-05-20T13:31:17;13.45;;;10.15;;
56122;SDS011;42426;46.104;19.656;2023-05-20T13:33:42;13.82;;;10.43;;
56122;SDS011;42426;46.104;19.656;2023-05-20T13:36:08;13.20;;;11.18;;
56122;SDS011;42426;46.104;19.656;2023-05-20T13:38:34;15.93;;;11.32;;
56122;SDS011;42426;46.104;19.656;2023-05-20T13:41:00;14.43;;;9.85;;
56122;SDS011;42426;46.104;19.656;2023-05-20T13:43:26;17.33;;;10.77;;
56122;SDS011;42426;46.104;19.656;2023-05-20T13:45:52;15.40;;;11.18;;
56122;SDS011;42426;46.104;19.656;2023-05-20T13:48:18;13.80;;;10.18;;
56122;SDS011;42426;46.104;19.656;2023-05-20T13:50:44;14.10;;;10.05;;
56122;SDS011;42426;46.104;19.656;2023-05-20T13:53:10;12.32;;;10.18;;
56122;SDS011;42426;46.104;19.656;2023-05-20T13:55:38;13.38;;;10.43;;
56122;SDS011;42426;46.104;19.656;2023-05-20T13:58:04;16.65;;;10.75;;
56122;SDS011;42426;46.104;19.656;2023-05-20T14:00:33;17.15;;;11.63;;
56122;SDS011;42426;46.104;19.656;2023-05-20T14:03:00;11.98;;;10.77;;
56122;SDS011;42426;46.104;19.656;2023-05-20T14:05:29;16.95;;;10.95;;
56122;SDS011;42426;46.104;19.656;2023-05-20T14:07:58;14.43;;;11.18;;
56122;SDS011;42426;46.104;19.656;2023-05-20T14:10:24;12.45;;;10.43;;
56122;SDS011;42426;46.104;19.656;2023-05-20T14:12:51;16.48;;;11.07;;
56122;SDS011;42426;46.104;19.656;2023-05-20T14:15:17;13.82;;;9.82;;
56122;SDS011;42426;46.104;19.656;2023-05-20T14:17:43;15.85;;;10.20;;
56122;SDS011;42426;46.104;19.656;2023-05-20T14:20:09;13.02;;;10.73;;
56122;SDS011;42426;46.104;19.656;2023-05-20T14:22:35;14.68;;;10.63;;
56122;SDS011;42426;46.104;19.656;2023-05-20T14:25:00;12.98;;;9.82;;